Time;durP1;ratioP1;P1;durP2;ratioP2;P2;SDS_P1;SDS_P2;PMS_P1;PMS_P2;Temp;Humidity;BMP_temperature;BMP_pressure;BME280_temperature;BME280_humidity;BME280_pressure;Samples;Min_cycle;Max_cycle;Signal;HPM_P1;HPM_P2
2022/04/15 00:01:10;;;;;;;442.83;124.70;;;;;;;;;;6245549;22;20086;-93
2022/04/15 00:03:36;;;;;;;454.15;126.35;;;;;;;;;;6272684;22;20015;-92
2022/04/15 00:06:08;;;;;;;460.42;128.00;;;;;;;;;;6245167;22;20006;-92
2022/04/15 00:08:34;;;;;;;477.00;130.95;;;;;;;;;;6245393;22;20138;-93
2022/04/15 00:11:01;;;;;;;476.17;130.98;;;;;;;;;;6272367;22;20460;-93
2022/04/15 00:13:29;;;;;;;470.15;129.50;;;;;;;;;;6272390;22;20032;-94
2022/04/15 00:16:05;;;;;;;480.38;132.05;;;;;;;;;;6245099;22;20023;-91
2022/04/15 00:18:32;;;;;;;496.65;136.65;;;;;;;;;;6272783;22;20003;-94
2022/04/15 00:20:58;;;;;;;516.90;141.25;;;;;;;;;;6245714;22;20329;-94
2022/04/15 00:23:25;;;;;;;499.67;137.07;;;;;;;;;;6273194;22;20078;-88
2022/04/15 00:25:52;;;;;;;478.15;131.77;;;;;;;;;;6273291;22;20003;-93
2022/04/15 00:28:18;;;;;;;477.98;132.23;;;;;;;;;;6272323;22;20451;-93
2022/04/15 00:30:44;;;;;;;480.65;132.93;;;;;;;;;;6272430;22;20000;-94
2022/04/15 00:33:10;;;;;;;467.42;130.13;;;;;;;;;;6272539;22;20000;-93
2022/04/15 00:35:37;;;;;;;481.45;133.00;;;;;;;;;;6272118;22;20018;-92
2022/04/15 00:38:04;;;;;;;469.50;130.98;;;;;;;;;;6272417;22;20007;-92
2022/04/15 00:40:30;;;;;;;477.05;131.85;;;;;;;;;;6272024;22;20493;-94
2022/04/15 00:42:56;;;;;;;471.40;130.13;;;;;;;;;;6272050;22;20436;-89
2022/04/15 00:45:22;;;;;;;519.03;140.98;;;;;;;;;;6273313;22;20075;-92
2022/04/15 00:47:48;;;;;;;507.25;138.25;;;;;;;;;;6272092;22;20004;-92
2022/04/15 00:50:15;;;;;;;508.45;139.82;;;;;;;;;;6271910;22;20078;-90
2022/04/15 00:52:46;;;;;;;515.22;140.23;;;;;;;;;;6272207;22;20010;-93
2022/04/15 00:55:12;;;;;;;522.33;141.82;;;;;;;;;;6271933;22;20003;-93
2022/04/15 00:57:42;;;;;;;518.40;140.43;;;;;;;;;;6271724;22;20022;-93
2022/04/15 01:00:10;;;;;;;506.27;135.88;;;;;;;;;;6271873;22;20281;-93
2022/04/15 01:02:37;;;;;;;503.63;136.65;;;;;;;;;;6245111;22;20059;-92
2022/04/15 01:05:04;;;;;;;540.03;146.68;;;;;;;;;;6272056;22;20018;-94
2022/04/15 01:07:34;;;;;;;540.22;144.90;;;;;;;;;;6272029;22;20003;-93
2022/04/15 01:10:01;;;;;;;532.58;142.65;;;;;;;;;;6244992;22;20003;-95
2022/04/15 01:12:29;;;;;;;521.10;139.77;;;;;;;;;;6253788;22;20004;-89
2022/04/15 01:14:59;;;;;;;503.35;134.95;;;;;;;;;;6297670;22;19992;-89
2022/04/15 01:17:25;;;;;;;470.67;128.25;;;;;;;;;;6284131;22;20396;-91
2022/04/15 01:19:51;;;;;;;462.10;127.30;;;;;;;;;;6250170;22;20011;-94
2022/04/15 01:22:18;;;;;;;475.38;130.02;;;;;;;;;;6247295;22;20415;-95
2022/04/15 01:24:44;;;;;;;550.65;149.88;;;;;;;;;;6274343;22;20000;-93
2022/04/15 01:27:10;;;;;;;542.83;146.10;;;;;;;;;;6274182;22;20057;-93
2022/04/15 01:29:40;;;;;;;539.03;145.65;;;;;;;;;;6274295;22;20002;-94
2022/04/15 01:32:08;;;;;;;549.90;148.25;;;;;;;;;;6274203;22;20078;-93
2022/04/15 01:34:36;;;;;;;501.63;135.67;;;;;;;;;;6247108;22;20004;-92
2022/04/15 01:37:03;;;;;;;503.10;135.90;;;;;;;;;;6274128;22;20031;-93
2022/04/15 01:39:31;;;;;;;490.83;133.10;;;;;;;;;;6274185;22;19999;-90
2022/04/15 01:41:57;;;;;;;522.03;139.17;;;;;;;;;;6247834;22;20016;-93
2022/04/15 01:44:23;;;;;;;514.05;138.02;;;;;;;;;;6273861;22;20000;-92
2022/04/15 01:46:49;;;;;;;515.10;138.55;;;;;;;;;;6247226;22;20263;-94
2022/04/15 01:49:16;;;;;;;507.45;137.52;;;;;;;;;;6246651;22;20023;-92
2022/04/15 01:51:42;;;;;;;504.40;137.43;;;;;;;;;;6273825;22;20077;-91
2022/04/15 01:54:08;;;;;;;506.45;136.90;;;;;;;;;;6273964;22;19995;-94
2022/04/15 01:56:34;;;;;;;521.45;140.55;;;;;;;;;;6274238;22;20082;-95
2022/04/15 01:59:00;;;;;;;506.13;136.68;;;;;;;;;;6247386;22;20022;-91
2022/04/15 02:01:26;;;;;;;512.75;138.13;;;;;;;;;;6274787;22;20004;-91
2022/04/15 02:03:52;;;;;;;503.65;136.02;;;;;;;;;;6273671;22;20020;-93
2022/04/15 02:06:18;;;;;;;513.60;140.00;;;;;;;;;;6246336;22;20106;-94
2022/04/15 02:08:44;;;;;;;521.72;141.52;;;;;;;;;;6274121;22;20004;-91
2022/04/15 02:11:10;;;;;;;504.40;136.75;;;;;;;;;;6273835;22;20026;-92
2022/04/15 02:13:36;;;;;;;527.25;142.57;;;;;;;;;;6248555;22;20062;-92
2022/04/15 02:16:02;;;;;;;528.67;142.52;;;;;;;;;;6273651;22;20026;-91
2022/04/15 02:18:28;;;;;;;527.17;142.15;;;;;;;;;;6274486;22;20000;-93
2022/04/15 02:20:54;;;;;;;538.65;145.57;;;;;;;;;;6248569;22;20046;-95
2022/04/15 02:23:20;;;;;;;546.15;147.25;;;;;;;;;;6273979;22;20007;-94
2022/04/15 02:25:46;;;;;;;542.13;148.77;;;;;;;;;;6275266;22;20003;-91
2022/04/15 02:28:12;;;;;;;537.08;145.98;;;;;;;;;;6276607;22;20004;-93
2022/04/15 02:30:38;;;;;;;549.13;148.73;;;;;;;;;;6250814;22;20030;-94
2022/04/15 02:33:05;;;;;;;535.42;144.32;;;;;;;;;;6279947;22;20006;-92
2022/04/15 02:35:31;;;;;;;544.20;147.95;;;;;;;;;;6283902;22;20006;-92
2022/04/15 02:37:57;;;;;;;545.85;147.55;;;;;;;;;;6247120;22;20079;-92
2022/04/15 02:40:23;;;;;;;547.03;147.70;;;;;;;;;;6273431;22;20008;-90
2022/04/15 02:42:49;;;;;;;592.50;164.43;;;;;;;;;;6272876;22;20011;-94
2022/04/15 02:45:15;;;;;;;632.70;179.43;;;;;;;;;;6273033;22;20027;-92
2022/04/15 02:47:41;;;;;;;624.05;174.60;;;;;;;;;;6273168;22;20428;-93
2022/04/15 02:50:07;;;;;;;603.95;169.57;;;;;;;;;;6245778;22;20003;-92
2022/04/15 02:52:35;;;;;;;602.53;169.45;;;;;;;;;;6273361;22;20004;-87
2022/04/15 02:55:01;;;;;;;601.90;169.35;;;;;;;;;;6274330;22;20015;-92
2022/04/15 02:57:27;;;;;;;547.13;149.90;;;;;;;;;;6272932;22;20076;-92
2022/04/15 02:59:53;;;;;;;597.95;168.18;;;;;;;;;;6273302;22;20227;-92
2022/04/15 03:02:19;;;;;;;576.50;160.75;;;;;;;;;;6274029;22;20012;-92
2022/04/15 03:04:45;;;;;;;518.35;143.75;;;;;;;;;;6275424;22;20340;-93
2022/04/15 03:07:11;;;;;;;497.67;137.27;;;;;;;;;;6273546;22;20000;-92
2022/04/15 03:10:10;;;;;;;;;;;;;;;;;;;;;
2022/04/15 03:12:44;;;;;;;573.08;161.70;;;;;;;;;;6274358;22;20080;-91
2022/04/15 03:15:12;;;;;;;586.05;167.77;;;;;;;;;;6246365;22;20015;-91
2022/04/15 03:17:38;;;;;;;495.23;136.80;;;;;;;;;;6274681;22;20034;-91
2022/04/15 03:20:06;;;;;;;492.60;136.50;;;;;;;;;;6273233;22;20000;-89
2022/04/15 03:22:36;;;;;;;586.83;168.68;;;;;;;;;;6273660;22;20019;-93
2022/04/15 03:25:02;;;;;;;588.60;170.02;;;;;;;;;;6273822;22;20007;-91
2022/04/15 03:27:28;;;;;;;474.63;133.63;;;;;;;;;;6272433;22;20003;-91
2022/04/15 03:29:54;;;;;;;459.73;129.93;;;;;;;;;;6273087;22;20509;-91
2022/04/15 03:32:24;;;;;;;474.33;134.27;;;;;;;;;;6273275;22;20006;-91
2022/04/15 03:35:00;;;;;;;457.85;130.88;;;;;;;;;;6247007;22;19999;-91
2022/04/15 03:47:18;;;;;;;;;;;;;;;;;;;;;
2022/04/15 03:56:17;;;;;;;;;;;;;;;;;;;;;
2022/04/15 04:01:37;;;;;;;571.72;167.05;;;;;;;;;;6035654;23;20098;-90
2022/04/15 04:04:16;;;;;;;;;;;;;;;;;;;;;
2022/04/15 04:07:15;;;;;;;;;;;;;;;;;;;;;
2022/04/15 04:09:46;;;;;;;;;;;;;;;;;;;;;
2022/04/15 04:12:39;;;;;;;574.30;170.57;;;;;;;;;;6145153;23;20088;-91
2022/04/15 04:18:27;;;;;;;;;;;;;;;;;;;;;
2022/04/15 04:21:14;;;;;;;555.55;162.82;;;;;;;;;;6150879;23;20077;-91
2022/04/15 04:23:49;;;;;;;557.05;163.23;;;;;;;;;;6162554;23;20032;-92
2022/04/15 04:29:22;;;;;;;559.65;166.52;;;;;;;;;;6210370;22;20007;-91
2022/04/15 04:31:55;;;;;;;573.00;170.18;;;;;;;;;;6245624;22;20463;-92
2022/04/15 04:34:23;;;;;;;584.42;174.77;;;;;;;;;;6245866;22;19999;-89
2022/04/15 04:36:57;;;;;;;904.33;291.83;;;;;;;;;;6245743;22;20010;-92
2022/04/15 04:45:21;;;;;;;786.10;252.70;;;;;;;;;;6251193;22;20000;-90
2022/04/15 04:47:47;;;;;;;781.92;249.95;;;;;;;;;;6272211;22;20004;-91
2022/04/15 04:50:20;;;;;;;772.58;246.50;;;;;;;;;;6271890;22;20003;-89
2022/04/15 04:52:47;;;;;;;785.03;250.73;;;;;;;;;;6245229;22;20087;-90
2022/04/15 04:55:43;;;;;;;;;;;;;;;;;;;;;
2022/04/15 04:58:50;;;;;;;768.50;246.40;;;;;;;;;;6263843;22;20071;-93
2022/04/15 05:01:16;;;;;;;761.10;246.88;;;;;;;;;;6267851;22;20022;-90
2022/04/15 05:03:42;;;;;;;787.03;258.08;;;;;;;;;;6271950;22;20038;-92
2022/04/15 05:06:08;;;;;;;801.33;262.67;;;;;;;;;;6272723;22;20003;-90
2022/04/15 05:08:34;;;;;;;764.38;248.35;;;;;;;;;;6244801;22;20035;-91
2022/04/15 05:11:00;;;;;;;799.97;261.45;;;;;;;;;;6244739;22;20284;-92
2022/04/15 05:13:26;;;;;;;789.53;258.92;;;;;;;;;;6265256;22;20015;-91
2022/04/15 05:15:52;;;;;;;793.55;258.23;;;;;;;;;;6243622;22;20008;-91
2022/04/15 05:18:18;;;;;;;793.63;257.77;;;;;;;;;;6271014;22;20007;-91
2022/04/15 05:20:45;;;;;;;795.28;258.17;;;;;;;;;;6244135;22;20003;-90
2022/04/15 05:23:12;;;;;;;800.80;261.70;;;;;;;;;;6271636;22;20618;-92
2022/04/15 05:25:41;;;;;;;774.08;249.43;;;;;;;;;;6245618;22;20010;-90
2022/04/15 05:28:07;;;;;;;768.28;248.50;;;;;;;;;;6245416;22;20004;-91
2022/04/15 05:30:33;;;;;;;786.60;256.40;;;;;;;;;;6245077;22;20321;-90
2022/04/15 05:33:05;;;;;;;781.00;254.45;;;;;;;;;;6271665;22;19999;-92
2022/04/15 05:35:31;;;;;;;770.72;250.48;;;;;;;;;;6244939;22;20641;-91
2022/04/15 05:37:57;;;;;;;770.38;252.80;;;;;;;;;;6271962;22;20084;-89
2022/04/15 05:40:27;;;;;;;817.83;269.98;;;;;;;;;;6243571;22;20007;-89
2022/04/15 05:42:53;;;;;;;806.95;266.48;;;;;;;;;;6249044;22;20153;-86
2022/04/15 05:45:19;;;;;;;808.25;266.73;;;;;;;;;;6279949;22;20057;-87
2022/04/15 05:47:46;;;;;;;807.80;264.67;;;;;;;;;;6279152;22;20016;-86
2022/04/15 05:50:13;;;;;;;800.65;263.58;;;;;;;;;;6278836;22;20000;-87
2022/04/15 05:52:39;;;;;;;806.90;265.70;;;;;;;;;;6276430;22;20007;-89
2022/04/15 05:55:05;;;;;;;797.78;262.67;;;;;;;;;;6271433;22;20000;-87
2022/04/15 05:57:32;;;;;;;811.63;267.42;;;;;;;;;;6270832;22;20502;-89
2022/04/15 05:59:58;;;;;;;802.63;263.52;;;;;;;;;;6271361;22;20026;-89
2022/04/15 06:02:24;;;;;;;793.08;260.50;;;;;;;;;;6270681;22;20425;-87
2022/04/15 06:04:52;;;;;;;796.58;261.48;;;;;;;;;;6240319;23;20361;-88
2022/04/15 06:07:18;;;;;;;782.97;254.73;;;;;;;;;;6242752;23;20409;-88
2022/04/15 06:09:44;;;;;;;772.90;250.60;;;;;;;;;;6214995;23;20000;-87
2022/04/15 06:12:10;;;;;;;759.83;244.10;;;;;;;;;;6242770;23;20057;-91
2022/04/15 06:14:36;;;;;;;763.78;245.80;;;;;;;;;;6242410;23;20019;-88
2022/04/15 06:17:03;;;;;;;774.42;249.13;;;;;;;;;;6242274;23;20031;-87
2022/04/15 06:19:29;;;;;;;783.45;250.50;;;;;;;;;;6242402;23;19996;-90
2022/04/15 06:21:55;;;;;;;778.22;249.45;;;;;;;;;;6241816;23;20024;-87
2022/04/15 06:24:21;;;;;;;782.38;250.88;;;;;;;;;;6214972;23;20015;-88
2022/04/15 06:26:47;;;;;;;781.88;248.05;;;;;;;;;;6215173;23;20496;-90
2022/04/15 06:29:13;;;;;;;778.22;246.95;;;;;;;;;;6216633;23;20035;-90
2022/04/15 06:31:39;;;;;;;812.13;258.95;;;;;;;;;;6216543;23;20008;-88
2022/04/15 06:34:05;;;;;;;772.80;243.82;;;;;;;;;;6242177;23;20004;-89
2022/04/15 06:36:31;;;;;;;778.15;247.18;;;;;;;;;;6242046;23;20447;-88
2022/04/15 06:38:57;;;;;;;786.95;248.82;;;;;;;;;;6215289;23;20005;-91
2022/04/15 06:41:23;;;;;;;784.85;245.13;;;;;;;;;;6214922;23;20008;-88
2022/04/15 06:43:49;;;;;;;803.13;252.80;;;;;;;;;;6215361;23;20464;-89
2022/04/15 06:46:15;;;;;;;778.75;243.25;;;;;;;;;;6215279;23;20004;-86
2022/04/15 06:48:44;;;;;;;779.75;243.02;;;;;;;;;;6242765;23;20057;-94
2022/04/15 06:51:13;;;;;;;772.70;240.88;;;;;;;;;;6243254;23;19996;-92
2022/04/15 06:53:40;;;;;;;770.35;240.02;;;;;;;;;;6215280;23;20023;-84
2022/04/15 06:56:06;;;;;;;783.90;243.73;;;;;;;;;;6215726;23;20049;-86
2022/04/15 06:58:32;;;;;;;792.78;247.63;;;;;;;;;;6242221;23;20039;-89
2022/04/15 07:00:58;;;;;;;795.15;247.20;;;;;;;;;;6242182;23;20098;-88
2022/04/15 07:03:25;;;;;;;789.33;245.77;;;;;;;;;;6241820;23;20012;-88
2022/04/15 07:05:51;;;;;;;778.78;240.57;;;;;;;;;;6215365;23;20008;-90
2022/04/15 07:08:17;;;;;;;780.58;239.10;;;;;;;;;;6215364;23;20000;-87
2022/04/15 07:10:43;;;;;;;790.67;242.75;;;;;;;;;;6244322;23;20003;-91
2022/04/15 07:13:10;;;;;;;787.15;240.95;;;;;;;;;;6245164;23;20001;-91
2022/04/15 07:15:36;;;;;;;770.65;234.07;;;;;;;;;;6241896;23;20252;-88
2022/04/15 07:18:03;;;;;;;790.40;242.95;;;;;;;;;;6241677;23;20415;-90
2022/04/15 07:20:29;;;;;;;801.58;243.48;;;;;;;;;;6246588;23;20004;-90
2022/04/15 07:22:56;;;;;;;810.05;246.85;;;;;;;;;;6219312;23;20066;-84
2022/04/15 07:25:22;;;;;;;823.53;247.30;;;;;;;;;;6243129;23;20004;-88
2022/04/15 07:27:48;;;;;;;816.95;246.32;;;;;;;;;;6242404;23;20007;-86
2022/04/15 07:30:14;;;;;;;829.30;246.98;;;;;;;;;;6217313;23;20425;-91
2022/04/15 07:32:40;;;;;;;862.10;259.88;;;;;;;;;;6241840;23;20035;-86
2022/04/15 07:35:07;;;;;;;866.95;259.85;;;;;;;;;;6214986;23;20027;-87
2022/04/15 07:37:33;;;;;;;793.33;234.82;;;;;;;;;;6241712;23;20413;-90
2022/04/15 07:39:59;;;;;;;693.17;202.25;;;;;;;;;;6242035;23;20429;-89
2022/04/15 07:42:25;;;;;;;678.75;195.30;;;;;;;;;;6241966;23;20069;-87
2022/04/15 07:44:51;;;;;;;652.47;185.98;;;;;;;;;;6247885;23;20000;-89
2022/04/15 07:47:17;;;;;;;657.47;186.52;;;;;;;;;;6242783;23;20000;-92
2022/04/15 07:49:43;;;;;;;662.55;186.82;;;;;;;;;;6242172;23;20011;-89
2022/04/15 07:52:09;;;;;;;662.72;189.07;;;;;;;;;;6240550;23;20004;-88
2022/04/15 07:54:35;;;;;;;671.10;191.98;;;;;;;;;;6240240;23;20076;-89
2022/04/15 07:57:02;;;;;;;681.78;194.82;;;;;;;;;;6213458;23;20027;-88
2022/04/15 07:59:28;;;;;;;694.28;197.82;;;;;;;;;;6213607;23;20051;-86
2022/04/15 08:01:55;;;;;;;667.72;189.63;;;;;;;;;;6239620;23;20008;-87
2022/04/15 08:04:21;;;;;;;643.13;179.52;;;;;;;;;;6240382;23;20114;-88
2022/04/15 08:06:47;;;;;;;648.10;180.77;;;;;;;;;;6240833;23;20431;-85
2022/04/15 08:09:13;;;;;;;641.95;178.77;;;;;;;;;;6240567;23;20008;-87
2022/04/15 08:11:39;;;;;;;658.50;185.32;;;;;;;;;;6242063;23;20004;-89
2022/04/15 08:14:05;;;;;;;650.35;181.55;;;;;;;;;;6242312;23;20001;-85
2022/04/15 08:16:31;;;;;;;649.83;182.52;;;;;;;;;;6243361;23;20475;-89
2022/04/15 08:18:57;;;;;;;627.67;172.02;;;;;;;;;;6216101;23;20000;-87
2022/04/15 08:21:24;;;;;;;633.63;174.30;;;;;;;;;;6242070;23;20019;-86
2022/04/15 08:23:50;;;;;;;660.13;182.38;;;;;;;;;;6242450;23;20004;-90
2022/04/15 08:26:16;;;;;;;669.95;185.73;;;;;;;;;;6245351;23;19996;-87
2022/04/15 08:28:42;;;;;;;677.10;188.40;;;;;;;;;;6244111;23;20008;-89
2022/04/15 08:31:08;;;;;;;677.53;187.57;;;;;;;;;;6214882;23;20310;-87
2022/04/15 08:33:35;;;;;;;676.60;187.00;;;;;;;;;;6216925;23;20111;-88
2022/04/15 08:36:01;;;;;;;665.20;180.88;;;;;;;;;;6243366;23;20115;-89
2022/04/15 08:38:27;;;;;;;677.10;187.13;;;;;;;;;;6215620;23;20031;-92
2022/04/15 08:40:55;;;;;;;677.00;186.27;;;;;;;;;;6216481;23;20000;-90
2022/04/15 08:43:21;;;;;;;658.25;179.70;;;;;;;;;;6241931;23;20015;-86
2022/04/15 08:45:47;;;;;;;688.67;189.80;;;;;;;;;;6218181;23;20011;-87
2022/04/15 08:48:14;;;;;;;680.63;187.10;;;;;;;;;;6241866;23;20005;-86
2022/04/15 08:50:40;;;;;;;664.92;181.68;;;;;;;;;;6214903;23;20015;-86
2022/04/15 08:53:06;;;;;;;673.55;184.40;;;;;;;;;;6242010;23;20011;-88
2022/04/15 08:55:32;;;;;;;632.45;169.90;;;;;;;;;;6243192;23;20004;-84
2022/04/15 08:57:59;;;;;;;641.15;172.75;;;;;;;;;;6242945;23;20358;-84
2022/04/15 09:00:25;;;;;;;658.75;177.93;;;;;;;;;;6243987;23;20007;-85
2022/04/15 09:02:52;;;;;;;632.03;169.48;;;;;;;;;;6244839;23;20038;-88
2022/04/15 09:05:20;;;;;;;660.30;178.13;;;;;;;;;;6244585;23;20110;-88
2022/04/15 09:07:46;;;;;;;641.90;171.07;;;;;;;;;;6245047;23;20030;-86
2022/04/15 09:10:12;;;;;;;656.35;175.43;;;;;;;;;;6242041;23;20042;-85
2022/04/15 09:12:40;;;;;;;651.55;174.82;;;;;;;;;;6215774;23;20004;-85
2022/04/15 09:15:06;;;;;;;630.83;167.57;;;;;;;;;;6242239;23;20028;-83
2022/04/15 09:17:32;;;;;;;574.75;150.20;;;;;;;;;;6241233;23;20081;-84
2022/04/15 09:19:58;;;;;;;607.58;159.75;;;;;;;;;;6241489;23;20071;-87
2022/04/15 09:22:25;;;;;;;623.08;164.90;;;;;;;;;;6243201;23;20054;-86
2022/04/15 09:24:51;;;;;;;572.20;147.57;;;;;;;;;;6219763;23;20000;-84
2022/04/15 09:27:19;;;;;;;582.60;151.52;;;;;;;;;;6243802;23;20043;-87
2022/04/15 09:29:46;;;;;;;588.58;152.93;;;;;;;;;;6241629;23;20011;-87
2022/04/15 09:32:16;;;;;;;647.53;173.65;;;;;;;;;;6241291;23;20053;-84
2022/04/15 09:34:54;;;;;;;664.90;179.50;;;;;;;;;;6241025;23;20377;-87
2022/04/15 09:37:20;;;;;;;;;;;;;;;;;;6242992;23;20314;-85
2022/04/15 09:40:18;;;;;;;676.80;182.93;;;;;;;;;;6242656;23;19907;-85
2022/04/15 09:42:47;;;;;;;678.60;182.23;;;;;;;;;;6161165;23;20090;-88
2022/04/15 09:45:17;;;;;;;596.28;154.75;;;;;;;;;;6243203;23;20041;-88
2022/04/15 09:47:44;;;;;;;592.28;153.60;;;;;;;;;;6242922;23;20441;-86
2022/04/15 09:50:25;;;;;;;655.13;175.15;;;;;;;;;;6216401;23;20123;-87
2022/04/15 09:52:51;;;;;;;653.75;172.43;;;;;;;;;;6217917;23;20020;-88
2022/04/15 09:55:20;;;;;;;659.50;175.20;;;;;;;;;;6244816;23;20034;-87
2022/04/15 09:57:46;;;;;;;668.38;177.93;;;;;;;;;;6243415;23;20046;-89
2022/04/15 10:00:13;;;;;;;658.20;173.95;;;;;;;;;;6243109;23;20008;-92
2022/04/15 10:02:39;;;;;;;669.13;178.00;;;;;;;;;;6244999;23;20008;-89
2022/04/15 10:05:06;;;;;;;667.05;176.95;;;;;;;;;;6244235;23;20004;-88
2022/04/15 10:07:34;;;;;;;666.65;175.32;;;;;;;;;;6242712;23;20004;-88
2022/04/15 10:10:01;;;;;;;104.07;41.67;;;;;;;;;;6216961;23;20083;-92
2022/04/15 10:12:28;;;;;;;524.17;134.77;;;;;;;;;;6244486;23;20464;-88
2022/04/15 10:14:55;;;;;;;543.42;139.25;;;;;;;;;;6244016;23;20050;-86
2022/04/15 10:17:23;;;;;;;554.83;142.70;;;;;;;;;;6244039;23;20012;-87
2022/04/15 10:19:49;;;;;;;580.67;150.00;;;;;;;;;;6243483;23;20035;-90
2022/04/15 10:22:16;;;;;;;562.60;143.77;;;;;;;;;;6242750;23;20138;-89
2022/04/15 10:24:43;;;;;;;507.02;131.57;;;;;;;;;;6243129;23;20039;-89
2022/04/15 10:27:11;;;;;;;508.48;133.13;;;;;;;;;;6242671;23;20079;-87
2022/04/15 10:29:37;;;;;;;531.42;137.25;;;;;;;;;;6243167;23;20426;-88
2022/04/15 10:32:15;;;;;;;549.92;140.98;;;;;;;;;;6243999;23;19996;-91
2022/04/15 10:34:46;;;;;;;547.50;140.18;;;;;;;;;;6216331;23;20008;-90
2022/04/15 10:37:12;;;;;;;549.85;141.50;;;;;;;;;;6245878;23;20000;-89
2022/04/15 10:39:47;;;;;;;547.47;139.90;;;;;;;;;;6244948;23;20000;-89
2022/04/15 10:42:17;;;;;;;540.03;139.35;;;;;;;;;;6243924;23;20004;-86
2022/04/15 10:44:44;;;;;;;536.10;138.23;;;;;;;;;;6243189;23;20011;-89
2022/04/15 10:47:26;;;;;;;564.88;144.48;;;;;;;;;;6216064;23;20000;-90
2022/04/15 10:49:58;;;;;;;550.30;140.70;;;;;;;;;;6244854;23;20008;-88
2022/04/15 10:52:25;;;;;;;551.00;141.35;;;;;;;;;;6244053;23;20042;-86
2022/04/15 10:55:02;;;;;;;556.90;142.13;;;;;;;;;;6217039;23;20011;-86
2022/04/15 10:57:32;;;;;;;551.80;141.00;;;;;;;;;;6242729;23;20010;-91
2022/04/15 11:02:50;;;;;;;575.75;147.07;;;;;;;;;;6242510;23;20471;-91
2022/04/15 11:05:31;;;;;;;569.00;144.98;;;;;;;;;;6242498;23;20000;-89
2022/04/15 11:07:59;;;;;;;482.75;127.70;;;;;;;;;;6242875;23;20028;-87
2022/04/15 11:11:03;;;;;;;463.92;122.05;;;;;;;;;;6244230;23;20004;-87
2022/04/15 11:13:29;;;;;;;469.40;122.82;;;;;;;;;;6166979;23;20023;-88
2022/04/15 11:16:12;;;;;;;497.17;128.65;;;;;;;;;;6244656;23;20002;-88
2022/04/15 11:18:46;;;;;;;478.50;125.03;;;;;;;;;;6242721;23;20437;-88
2022/04/15 11:21:16;;;;;;;499.55;128.77;;;;;;;;;;6242926;23;20045;-86
2022/04/15 11:23:46;;;;;;;502.35;129.63;;;;;;;;;;6242903;23;20018;-87
2022/04/15 11:26:12;;;;;;;491.02;127.43;;;;;;;;;;6214885;23;20000;-88
2022/04/15 11:28:40;;;;;;;473.77;124.07;;;;;;;;;;6241991;23;20341;-87
2022/04/15 11:31:19;;;;;;;450.92;120.25;;;;;;;;;;6215075;23;20007;-86
2022/04/15 11:33:45;;;;;;;454.95;120.82;;;;;;;;;;6216350;23;20353;-87
2022/04/15 11:36:11;;;;;;;463.20;122.68;;;;;;;;;;6244281;23;19996;-87
2022/04/15 11:38:37;;;;;;;476.65;124.97;;;;;;;;;;6244002;23;20019;-86
2022/04/15 11:41:03;;;;;;;448.95;120.10;;;;;;;;;;6241289;23;20078;-85
2022/04/15 11:43:30;;;;;;;445.88;119.45;;;;;;;;;;6214570;23;20441;-85
2022/04/15 11:45:56;;;;;;;436.05;117.55;;;;;;;;;;6215623;23;20406;-89
2022/04/15 11:48:23;;;;;;;427.10;116.05;;;;;;;;;;6214993;23;20008;-87
2022/04/15 11:50:53;;;;;;;419.00;114.30;;;;;;;;;;6242058;23;20000;-87
2022/04/15 11:53:19;;;;;;;432.60;116.78;;;;;;;;;;6243057;23;20012;-92
2022/04/15 11:55:52;;;;;;;433.52;117.50;;;;;;;;;;6242259;23;20022;-89
2022/04/15 11:58:18;;;;;;;431.63;116.40;;;;;;;;;;6215578;23;20004;-87
2022/04/15 12:00:50;;;;;;;429.13;115.43;;;;;;;;;;6216215;23;20035;-86
2022/04/15 12:03:16;;;;;;;434.08;117.20;;;;;;;;;;6214748;23;20444;-86
2022/04/15 12:05:42;;;;;;;413.45;114.05;;;;;;;;;;6242522;23;19996;-87
2022/04/15 12:08:11;;;;;;;410.77;113.32;;;;;;;;;;6215841;23;20087;-87
2022/04/15 12:10:38;;;;;;;403.70;111.93;;;;;;;;;;6243341;23;20008;-89
2022/04/15 12:13:04;;;;;;;440.50;118.22;;;;;;;;;;6218039;23;20004;-86
2022/04/15 12:15:32;;;;;;;386.52;108.95;;;;;;;;;;6243490;23;20322;-85
2022/04/15 12:17:58;;;;;;;409.90;112.63;;;;;;;;;;6216125;23;20087;-86
2022/04/15 12:20:25;;;;;;;395.23;110.07;;;;;;;;;;6216047;23;20008;-86
2022/04/15 12:22:51;;;;;;;447.88;118.70;;;;;;;;;;6215074;23;20495;-87
2022/04/15 12:25:19;;;;;;;410.20;113.38;;;;;;;;;;6242600;23;20000;-86
2022/04/15 12:27:46;;;;;;;452.08;120.30;;;;;;;;;;6241893;23;20000;-86
2022/04/15 12:30:14;;;;;;;512.95;131.20;;;;;;;;;;6214850;23;20007;-88
2022/04/15 12:32:40;;;;;;;;;;;;;;;;;;6241624;23;20087;-86
2022/04/15 12:35:10;;;;;;;543.15;137.50;;;;;;;;;;6241647;23;19900;-87
2022/04/15 12:37:37;;;;;;;481.35;125.07;;;;;;;;;;6214489;23;20004;-85
2022/04/15 12:40:09;;;;;;;485.23;125.45;;;;;;;;;;6242241;23;20058;-86
2022/04/15 12:42:37;;;;;;;495.60;127.93;;;;;;;;;;6240966;23;20027;-85
2022/04/15 12:45:05;;;;;;;645.85;165.25;;;;;;;;;;6214535;23;20099;-88
2022/04/15 12:47:32;;;;;;;649.40;166.30;;;;;;;;;;6241390;23;20007;-85
2022/04/15 12:50:16;;;;;;;634.55;161.65;;;;;;;;;;6242037;23;20000;-86
2022/04/15 12:52:42;;;;;;;704.55;182.98;;;;;;;;;;6214665;23;20226;-87
2022/04/15 12:55:10;;;;;;;694.80;180.95;;;;;;;;;;6240825;23;20004;-85
2022/04/15 12:57:37;;;;;;;699.38;182.93;;;;;;;;;;6241018;23;20004;-85
2022/04/15 13:00:07;;;;;;;679.20;177.97;;;;;;;;;;6240731;23;20006;-85
2022/04/15 13:02:34;;;;;;;646.97;167.20;;;;;;;;;;6240612;23;20147;-85
2022/04/15 13:05:00;;;;;;;637.47;167.43;;;;;;;;;;6241857;23;20336;-86
2022/04/15 13:07:26;;;;;;;642.35;165.60;;;;;;;;;;6240857;23;20000;-88
2022/04/15 13:09:52;;;;;;;651.88;169.10;;;;;;;;;;6215060;23;20296;-88
2022/04/15 13:12:19;;;;;;;657.05;172.73;;;;;;;;;;6215694;23;20000;-87
2022/04/15 13:14:45;;;;;;;632.88;163.30;;;;;;;;;;6240880;23;20008;-87
2022/04/15 13:17:11;;;;;;;645.90;166.73;;;;;;;;;;6214478;23;20091;-90
2022/04/15 13:19:39;;;;;;;616.83;157.68;;;;;;;;;;6241819;23;20028;-85
2022/04/15 13:22:05;;;;;;;673.60;174.73;;;;;;;;;;6243797;23;20006;-88
2022/04/15 13:24:31;;;;;;;649.22;168.30;;;;;;;;;;6215493;23;20066;-85
2022/04/15 13:26:57;;;;;;;640.50;165.82;;;;;;;;;;6241034;23;20003;-89
2022/04/15 13:29:23;;;;;;;642.05;165.07;;;;;;;;;;6215292;23;20386;-88
2022/04/15 13:31:50;;;;;;;634.33;162.90;;;;;;;;;;6214183;23;20035;-87
2022/04/15 13:34:16;;;;;;;637.10;164.57;;;;;;;;;;6214334;23;20012;-86
2022/04/15 13:36:42;;;;;;;671.20;175.18;;;;;;;;;;6214909;23;20004;-88
2022/04/15 13:39:08;;;;;;;617.08;156.93;;;;;;;;;;6240833;23;20070;-88
2022/04/15 13:41:36;;;;;;;712.50;187.68;;;;;;;;;;6241867;23;20001;-86
2022/04/15 13:44:02;;;;;;;730.97;194.45;;;;;;;;;;6241812;23;20399;-85
2022/04/15 13:46:28;;;;;;;713.45;189.00;;;;;;;;;;6240965;23;20009;-86
2022/04/15 13:48:54;;;;;;;719.00;191.77;;;;;;;;;;6240726;23;20010;-87
2022/04/15 13:51:21;;;;;;;754.97;203.55;;;;;;;;;;6240723;23;20023;-90
2022/04/15 13:56:34;;;;;;;777.53;210.52;;;;;;;;;;6241953;23;20082;-86
2022/04/15 13:59:05;;;;;;;736.80;198.30;;;;;;;;;;6241400;23;20011;-87
2022/04/15 14:01:32;;;;;;;801.25;218.02;;;;;;;;;;6214731;23;20004;-88
2022/04/15 14:03:58;;;;;;;786.15;212.77;;;;;;;;;;6240309;23;20040;-87
2022/04/15 14:06:24;;;;;;;783.92;212.38;;;;;;;;;;6240287;23;20000;-88
2022/04/15 14:08:51;;;;;;;784.65;211.75;;;;;;;;;;6240249;23;20400;-87
2022/04/15 14:11:17;;;;;;;723.35;192.63;;;;;;;;;;6240220;23;20071;-87
2022/04/15 14:13:43;;;;;;;723.60;192.63;;;;;;;;;;6240480;23;20015;-87
2022/04/15 14:16:13;;;;;;;718.75;189.55;;;;;;;;;;6240413;23;19996;-87
2022/04/15 14:18:39;;;;;;;727.92;192.00;;;;;;;;;;6240301;23;20031;-87
2022/04/15 14:21:05;;;;;;;689.35;179.48;;;;;;;;;;6241462;23;20084;-88
2022/04/15 14:23:32;;;;;;;702.00;183.38;;;;;;;;;;6214127;23;20424;-89
2022/04/15 14:25:59;;;;;;;752.92;197.48;;;;;;;;;;6240860;23;20049;-86
2022/04/15 14:28:25;;;;;;;757.10;200.20;;;;;;;;;;6242317;23;20000;-86
2022/04/15 14:30:51;;;;;;;719.55;188.38;;;;;;;;;;6242394;23;20024;-87
2022/04/15 14:33:17;;;;;;;673.22;174.00;;;;;;;;;;6215069;23;20333;-89
2022/04/15 14:35:44;;;;;;;709.05;184.13;;;;;;;;;;6215056;23;20090;-86
2022/04/15 14:38:11;;;;;;;722.83;189.33;;;;;;;;;;6215251;23;20007;-86
2022/04/15 14:40:37;;;;;;;670.45;173.68;;;;;;;;;;6243777;23;20079;-89
2022/04/15 14:43:03;;;;;;;678.50;175.90;;;;;;;;;;6242946;23;20039;-88